createdAt,value
2022-12-17T00:01:40.936Z,102111.19
2022-12-17T00:04:31.589Z,102113.34
2022-12-17T00:07:22.467Z,102110.63
2022-12-17T00:10:13.426Z,102107.41
2022-12-17T00:13:09.884Z,102102.28
2022-12-17T00:16:00.918Z,102102.00
2022-12-17T00:18:51.470Z,102106.56
2022-12-17T00:21:42.153Z,102101.97
2022-12-17T00:24:32.771Z,102106.31
2022-12-17T00:27:23.342Z,102113.59
2022-12-17T00:30:15.194Z,102113.06
2022-12-17T00:33:05.833Z,102127.88
2022-12-17T00:35:56.274Z,102127.88
2022-12-17T00:38:48.234Z,102133.00
2022-12-17T00:41:38.981Z,102127.06
2022-12-17T00:44:29.383Z,102120.28
2022-12-17T00:47:21.388Z,102123.84
2022-12-17T00:50:12.441Z,102128.94
2022-12-17T00:53:06.123Z,102122.47
2022-12-17T00:56:08.167Z,102119.81
2022-12-17T00:58:59.381Z,102127.06
2022-12-17T01:01:51.188Z,102130.53
2022-12-17T01:04:43.924Z,102134.34
2022-12-17T01:07:35.733Z,102124.88
2022-12-17T01:10:27.039Z,102119.25
2022-12-17T01:13:21.403Z,102125.72
2022-12-17T01:16:11.998Z,102125.75
2022-12-17T01:19:02.758Z,102116.00
2022-12-17T01:21:59.323Z,102117.59
2022-12-17T01:24:52.266Z,102122.47
2022-12-17T01:27:43.076Z,102121.91
2022-12-17T01:30:33.621Z,102132.72
2022-12-17T01:33:26.086Z,102135.94
2022-12-17T01:36:17.458Z,102143.47
2022-12-17T01:39:20.757Z,102146.44
2022-12-17T01:42:11.408Z,102148.88
2022-12-17T01:45:08.039Z,102140.81
2022-12-17T01:48:03.185Z,102150.50
2022-12-17T01:50:57.363Z,102148.88
2022-12-17T01:53:52.483Z,102152.09
2022-12-17T01:56:45.216Z,102156.72
2022-12-17T01:59:37.302Z,102155.34
2022-12-17T02:02:29.816Z,102159.97
2022-12-17T02:05:21.835Z,102162.06
2022-12-17T02:08:24.601Z,102161.28
2022-12-17T02:11:21.751Z,102164.53
2022-12-17T02:14:22.442Z,102164.25
2022-12-17T02:17:19.351Z,102157.81
2022-12-17T02:20:23.356Z,102155.09
2022-12-17T02:23:24.488Z,102154.31
2022-12-17T02:26:21.804Z,102160.25
2022-12-17T02:29:15.766Z,102158.31
2022-12-17T02:32:08.632Z,102163.50
2022-12-17T02:35:03.280Z,102172.63
2022-12-17T02:38:06.078Z,102167.75
2022-12-17T02:40:58.129Z,102180.44
2022-12-17T02:43:49.928Z,102180.66
2022-12-17T02:46:42.437Z,102187.16
2022-12-17T02:49:33.225Z,102189.00
2022-12-17T02:52:23.932Z,102190.38
2022-12-17T02:55:14.497Z,102187.94
2022-12-17T02:58:06.791Z,102198.97
2022-12-17T03:00:59.880Z,102194.16
2022-12-17T03:03:52.416Z,102196.31
2022-12-17T03:06:43.074Z,102196.34
2022-12-17T03:09:33.717Z,102193.06
2022-12-17T03:12:25.303Z,102195.22
2022-12-17T03:15:15.967Z,102206.50
2022-12-17T03:18:06.553Z,102203.56
2022-12-17T03:20:58.548Z,102208.41
2022-12-17T03:23:48.992Z,102208.66
2022-12-17T03:26:39.958Z,102218.34
2022-12-17T03:29:30.675Z,102205.97
2022-12-17T03:32:21.462Z,102219.47
2022-12-17T03:35:12.322Z,102215.66
2022-12-17T03:38:04.169Z,102214.03
2022-12-17T03:40:54.625Z,102219.72
2022-12-17T03:43:44.999Z,102220.53
2022-12-17T03:46:43.808Z,102215.16
2022-12-17T03:49:34.485Z,102218.13
2022-12-17T03:52:24.660Z,102220.59
2022-12-17T03:55:16.425Z,102218.97
2022-12-17T03:58:21.482Z,102221.63
2022-12-17T04:01:11.757Z,102214.63
2022-12-17T04:04:02.807Z,102210.06
2022-12-17T04:06:53.178Z,102207.31
2022-12-17T04:09:43.879Z,102213.75
2022-12-17T04:12:51.135Z,102213.56
2022-12-17T04:15:41.993Z,102217.34
2022-12-17T04:18:32.425Z,102213.00
2022-12-17T04:21:23.086Z,102212.97
2022-12-17T04:24:13.486Z,102214.91
2022-12-17T04:27:03.734Z,102218.69
2022-12-17T04:29:55.681Z,102219.22
2022-12-17T04:32:51.517Z,102222.66
2022-12-17T04:35:40.938Z,102223.22
2022-12-17T04:38:31.587Z,102219.44
2022-12-17T04:41:21.961Z,102225.41
2022-12-17T04:44:12.234Z,102214.63
2022-12-17T04:47:04.292Z,102215.97
2022-12-17T04:49:57.375Z,102212.44
2022-12-17T04:52:47.961Z,102218.38
2022-12-17T04:55:38.736Z,102223.06
2022-12-17T04:58:29.406Z,102221.44
2022-12-17T05:01:20.173Z,102223.28
2022-12-17T05:04:12.089Z,102229.44
2022-12-17T05:07:02.693Z,102218.41
2022-12-17T05:09:53.421Z,102218.41
2022-12-17T05:12:43.961Z,102223.38
2022-12-17T05:15:34.541Z,102228.69
2022-12-17T05:18:27.167Z,102231.38
2022-12-17T05:21:18.961Z,102230.06
2022-12-17T05:24:09.399Z,102246.78
2022-12-17T05:26:59.887Z,102243.50
2022-12-17T05:29:50.353Z,102243.28
2022-12-17T05:32:41.285Z,102249.16
2022-12-17T05:35:31.779Z,102239.75
2022-12-17T05:38:25.333Z,102242.50
2022-12-17T05:41:17.119Z,102241.66
2022-12-17T05:44:07.391Z,102243.00
2022-12-17T05:46:58.138Z,102237.59
2022-12-17T05:49:48.855Z,102251.34
2022-12-17T05:52:39.387Z,102255.16
2022-12-17T05:55:31.476Z,102252.19
2022-12-17T05:58:22.599Z,102250.91
2022-12-17T06:01:14.886Z,102258.16
2022-12-17T06:04:05.633Z,102272.19
2022-12-17T06:06:56.380Z,102265.16
2022-12-17T06:09:47.039Z,102269.75
2022-12-17T06:12:38.993Z,102262.50
2022-12-17T06:15:29.587Z,102268.69
2022-12-17T06:18:19.874Z,102266.50
2022-12-17T06:21:11.441Z,102270.31
2022-12-17T06:24:02.054Z,102274.09
2022-12-17T06:26:52.608Z,102273.56
2022-12-17T06:29:44.329Z,102278.91
2022-12-17T06:32:34.440Z,102280.56
2022-12-17T06:35:26.077Z,102287.00
2022-12-17T06:38:17.500Z,102292.66
2022-12-17T06:41:09.434Z,102291.91
2022-12-17T06:43:59.874Z,102288.66
2022-12-17T06:46:54.514Z,102290.78
2022-12-17T06:49:45.149Z,102281.59
2022-12-17T06:52:35.667Z,102293.72
2022-12-17T06:55:26.827Z,102302.91
2022-12-17T06:58:18.860Z,102289.41
2022-12-17T07:01:12.617Z,102298.38
2022-12-17T07:04:04.567Z,102294.06
2022-12-17T07:06:56.536Z,102299.22
2022-12-17T07:09:49.723Z,102300.56
2022-12-17T07:12:40.034Z,102308.31
2022-12-17T07:15:31.453Z,102310.25
2022-12-17T07:18:22.973Z,102315.91
2022-12-17T07:21:14.648Z,102322.63
2022-12-17T07:24:05.054Z,102326.38
2022-12-17T07:26:57.826Z,102326.91
2022-12-17T07:29:48.087Z,102319.91
2022-12-17T07:32:38.557Z,102329.91
2022-12-17T07:35:29.158Z,102330.66
2022-12-17T07:38:24.297Z,102332.34
2022-12-17T07:41:14.990Z,102335.88
2022-12-17T07:44:05.497Z,102328.50
2022-12-17T07:46:55.925Z,102333.53
2022-12-17T07:49:46.399Z,102341.09
2022-12-17T07:52:38.119Z,102336.44
2022-12-17T07:55:29.884Z,102342.91
2022-12-17T07:58:22.205Z,102341.31
2022-12-17T08:01:13.049Z,102342.16
2022-12-17T08:04:03.845Z,102340.78
2022-12-17T08:06:59.827Z,102355.47
2022-12-17T08:09:52.311Z,102351.09
2022-12-17T08:12:45.259Z,102350.25
2022-12-17T08:15:35.841Z,102350.53
2022-12-17T08:18:34.601Z,102357.53
2022-12-17T08:21:24.901Z,102365.56
2022-12-17T08:24:15.226Z,102369.44
2022-12-17T08:27:06.005Z,102372.72
2022-12-17T08:29:57.676Z,102367.06
2022-12-17T08:32:48.136Z,102378.59
2022-12-17T08:35:38.697Z,102382.19
2022-12-17T08:38:28.975Z,102391.94
2022-12-17T08:41:20.229Z,102392.97
2022-12-17T08:44:10.954Z,102396.44
2022-12-17T08:47:02.838Z,102397.47
2022-12-17T08:49:53.439Z,102403.69
2022-12-17T08:52:43.930Z,102403.41
2022-12-17T08:55:34.023Z,102408.00
2022-12-17T08:58:23.712Z,102411.00
2022-12-17T09:01:16.877Z,102416.94
2022-12-17T09:04:08.839Z,102421.78
2022-12-17T09:06:59.107Z,102420.81
2022-12-17T09:09:49.360Z,102418.06
2022-12-17T09:12:42.160Z,102424.53
2022-12-17T09:15:33.038Z,102429.16
2022-12-17T09:18:23.643Z,102429.97
2022-12-17T09:21:15.491Z,102430.56
2022-12-17T09:24:06.515Z,102434.28
2022-12-17T09:26:56.985Z,102428.34
2022-12-17T09:29:47.691Z,102433.22
2022-12-17T09:32:39.491Z,102442.69
2022-12-17T09:35:30.079Z,102447.78
2022-12-17T09:38:21.979Z,102458.19
2022-12-17T09:41:12.495Z,102452.00
2022-12-17T09:44:06.736Z,102460.84
2022-12-17T09:47:03.840Z,102455.19
2022-12-17T09:49:55.643Z,102456.03
2022-12-17T09:52:50.124Z,102462.31
2022-12-17T09:56:00.285Z,102465.88
2022-12-17T09:58:55.108Z,102466.41
2022-12-17T10:01:51.599Z,102471.25
2022-12-17T10:04:52.283Z,102476.66
2022-12-17T10:07:45.317Z,102480.47
2022-12-17T10:10:44.315Z,102489.16
2022-12-17T10:13:36.994Z,102486.41
2022-12-17T10:16:42.547Z,102483.75
2022-12-17T10:19:38.034Z,102485.91
2022-12-17T10:22:30.684Z,102480.50
2022-12-17T10:25:21.438Z,102477.81
2022-12-17T10:28:13.474Z,102472.97
2022-12-17T10:31:06.252Z,102475.16
2022-12-17T10:34:01.971Z,102469.75
2022-12-17T10:36:54.397Z,102470.56
2022-12-17T10:39:45.092Z,102468.19
2022-12-17T10:42:41.368Z,102466.53
2022-12-17T10:45:43.130Z,102456.28
2022-12-17T10:48:41.773Z,102457.97
2022-12-17T10:51:43.529Z,102459.56
2022-12-17T10:54:48.799Z,102451.44
2022-12-17T10:57:49.823Z,102449.56
2022-12-17T11:00:49.299Z,102447.16
2022-12-17T11:03:47.879Z,102449.56
2022-12-17T11:06:44.005Z,102450.13
2022-12-17T11:09:55.998Z,102454.72
2022-12-17T11:12:52.918Z,102463.63
2022-12-17T11:15:52.434Z,102465.03
2022-12-17T11:18:46.508Z,102466.09
2022-12-17T11:21:43.576Z,102460.97
2022-12-17T11:24:43.412Z,102457.72
2022-12-17T11:27:40.237Z,102460.16
2022-12-17T11:30:32.215Z,102453.66
2022-12-17T11:33:31.685Z,102446.63
2022-12-17T11:36:38.286Z,102456.91
2022-12-17T11:39:39.968Z,102458.53
2022-12-17T11:42:38.007Z,102463.41
2022-12-17T11:45:44.148Z,102462.31
2022-12-17T11:48:46.351Z,102463.13
2022-12-17T11:51:46.745Z,102457.19
2022-12-17T11:54:41.702Z,102454.22
2022-12-17T11:57:43.081Z,102454.22
2022-12-17T12:00:38.854Z,102456.38
2022-12-17T12:03:48.078Z,102458.00
2022-12-17T12:06:53.176Z,102452.31
2022-12-17T12:09:49.507Z,102466.63
2022-12-17T12:12:57.919Z,102452.88
2022-12-17T12:15:56.568Z,102455.56
2022-12-17T12:19:02.788Z,102451.50
2022-12-17T12:21:58.889Z,102450.69
2022-12-17T12:25:05.230Z,102449.34
2022-12-17T12:28:07.818Z,102451.78
2022-12-17T12:31:13.783Z,102449.34
2022-12-17T12:34:12.636Z,102453.13
2022-12-17T12:37:04.734Z,102444.47
2022-12-17T12:40:05.420Z,102450.97
2022-12-17T12:43:01.128Z,102443.41
2022-12-17T12:46:05.812Z,102450.16
2022-12-17T12:49:03.940Z,102443.94
2022-12-17T12:51:57.073Z,102442.84
2022-12-17T12:54:49.807Z,102446.66
2022-12-17T12:57:50.473Z,102441.22
2022-12-17T13:00:49.762Z,102439.06
2022-12-17T13:03:50.489Z,102427.19
2022-12-17T13:06:46.842Z,102434.75
2022-12-17T13:09:39.268Z,102430.97
2022-12-17T13:12:29.874Z,102426.09
2022-12-17T13:15:22.705Z,102428.81
2022-12-17T13:18:10.350Z,102428.53
2022-12-17T13:20:48.998Z,102429.88
2022-12-17T13:23:33.653Z,102420.41
2022-12-17T13:26:23.410Z,102424.47
2022-12-17T13:29:03.302Z,102415.00
2022-12-17T13:31:49.072Z,102418.53
2022-12-17T13:34:29.804Z,102429.88
2022-12-17T13:37:09.069Z,102421.78
2022-12-17T13:39:53.304Z,102425.53
2022-12-17T13:42:30.586Z,102419.06
2022-12-17T13:45:04.079Z,102418.00
2022-12-17T13:47:38.453Z,102423.09
2022-12-17T13:50:38.852Z,102428.00
2022-12-17T13:53:16.475Z,102427.16
2022-12-17T13:55:57.032Z,102424.19
2022-12-17T13:58:31.652Z,102429.34
2022-12-17T14:01:06.674Z,102425.00
2022-12-17T14:04:05.405Z,102428.00
2022-12-17T14:06:36.151Z,102432.56
2022-12-17T14:09:18.271Z,102441.75
2022-12-17T14:12:10.855Z,102437.44
2022-12-17T14:14:48.067Z,102435.00
2022-12-17T14:17:25.179Z,102437.47
2022-12-17T14:20:00.676Z,102442.84
2022-12-17T14:22:37.769Z,102450.41
2022-12-17T14:25:17.833Z,102459.63
2022-12-17T14:27:55.161Z,102465.56
2022-12-17T14:30:42.975Z,102465.84
2022-12-17T14:33:30.950Z,102471.53
2022-12-17T14:36:07.596Z,102465.28
2022-12-17T14:38:42.949Z,102464.22
2022-12-17T14:41:37.539Z,102471.50
2022-12-17T14:44:21.629Z,102476.09
2022-12-17T14:47:14.151Z,102478.81
2022-12-17T14:50:06.558Z,102482.31
2022-12-17T14:52:43.129Z,102486.66
2022-12-17T14:55:38.484Z,102485.88
2022-12-17T14:58:21.006Z,102486.38
2022-12-17T15:01:04.899Z,102490.97
2022-12-17T15:03:41.306Z,102483.41
2022-12-17T15:06:18.888Z,102489.88
2022-12-17T15:08:53.352Z,102496.38
2022-12-17T15:11:28.832Z,102499.38
2022-12-17T15:14:02.237Z,102492.59
2022-12-17T15:16:38.336Z,102498.00
2022-12-17T15:19:12.947Z,102492.06
2022-12-17T15:21:46.142Z,102490.44
2022-12-17T15:24:23.714Z,102500.72
2022-12-17T15:26:57.094Z,102501.78
2022-12-17T15:29:32.028Z,102509.88
2022-12-17T15:32:08.864Z,102502.34
2022-12-17T15:34:42.037Z,102508.28
2022-12-17T15:37:16.412Z,102509.34
2022-12-17T15:39:52.192Z,102516.91
2022-12-17T15:42:51.326Z,102515.03
2022-12-17T15:45:27.840Z,102521.78
2022-12-17T15:48:04.368Z,102523.41
2022-12-17T15:50:41.341Z,102524.75
2022-12-17T15:53:25.435Z,102523.41
2022-12-17T15:56:01.086Z,102525.28
2022-12-17T15:58:43.380Z,102519.63
2022-12-17T16:01:20.746Z,102528.81
2022-12-17T16:03:58.979Z,102518.00
2022-12-17T16:06:33.704Z,102522.88
2022-12-17T16:09:06.992Z,102522.88
2022-12-17T16:11:40.679Z,102517.97
2022-12-17T16:14:14.121Z,102520.16
2022-12-17T16:16:47.356Z,102529.34
2022-12-17T16:19:22.071Z,102528.50
2022-12-17T16:22:01.377Z,102532.56
2022-12-17T16:24:34.871Z,102541.22
2022-12-17T16:27:10.320Z,102543.41
2022-12-17T16:29:43.582Z,102537.13
2022-12-17T16:32:19.680Z,102534.72
2022-12-17T16:34:54.524Z,102547.16
2022-12-17T16:37:27.674Z,102542.31
2022-12-17T16:40:00.938Z,102547.69
2022-12-17T16:42:34.163Z,102547.72
2022-12-17T16:45:08.550Z,102544.72
2022-12-17T16:47:41.425Z,102543.91
2022-12-17T16:50:16.930Z,102534.16
2022-12-17T16:52:50.258Z,102540.09
2022-12-17T16:55:22.815Z,102533.59
2022-12-17T16:57:56.193Z,102537.13
2022-12-17T17:00:29.131Z,102535.78
2022-12-17T17:03:02.169Z,102539.53
2022-12-17T17:05:39.393Z,102534.69
2022-12-17T17:08:12.116Z,102537.91
2022-12-17T17:10:44.927Z,102538.44
2022-12-17T17:13:17.652Z,102541.41
2022-12-17T17:15:50.534Z,102537.34
2022-12-17T17:18:24.848Z,102533.84
2022-12-17T17:21:25.295Z,102532.47
2022-12-17T17:24:01.341Z,102544.38
2022-12-17T17:26:35.738Z,102533.53
2022-12-17T17:29:10.030Z,102535.38
2022-12-17T17:34:38.773Z,102545.44
2022-12-17T17:37:13.800Z,102549.47
2022-12-17T17:39:46.893Z,102544.34
2022-12-17T17:42:19.702Z,102547.56
2022-12-17T17:44:52.765Z,102540.56
2022-12-17T17:47:25.890Z,102550.22
2022-12-17T17:49:58.847Z,102558.84
2022-12-17T17:52:32.939Z,102540.78
2022-12-17T17:55:06.760Z,102536.16
2022-12-17T17:57:39.602Z,102551.00
2022-12-17T18:00:13.608Z,102540.44
2022-12-17T18:02:47.078Z,102544.81
2022-12-17T18:05:21.760Z,102540.75
2022-12-17T18:07:56.236Z,102535.34
2022-12-17T18:10:38.625Z,102541.53
2022-12-17T18:13:29.059Z,102538.53
2022-12-17T18:16:03.013Z,102544.19
2022-12-17T18:18:36.530Z,102545.31
2022-12-17T18:21:12.397Z,102545.09
2022-12-17T18:23:48.761Z,102546.41
2022-12-17T18:26:24.526Z,102550.97
2022-12-17T18:29:01.589Z,102555.00
2022-12-17T18:31:36.313Z,102553.13
2022-12-17T18:34:12.698Z,102555.84
2022-12-17T18:36:47.232Z,102568.00
2022-12-17T18:39:23.586Z,102563.16
2022-12-17T18:42:14.257Z,102571.47
2022-12-17T18:44:47.460Z,102570.38
2022-12-17T18:47:20.617Z,102569.25
2022-12-17T18:49:53.799Z,102578.97
2022-12-17T18:52:26.744Z,102572.75
2022-12-17T18:55:01.091Z,102577.63
2022-12-17T18:57:34.099Z,102577.94
2022-12-17T19:00:08.825Z,102574.91
2022-12-17T19:02:43.327Z,102578.69
2022-12-17T19:05:16.757Z,102581.94
2022-12-17T19:07:51.107Z,102582.47
2022-12-17T19:10:28.698Z,102581.69
2022-12-17T19:13:04.277Z,102590.31
2022-12-17T19:15:37.384Z,102603.47
2022-12-17T19:18:10.644Z,102602.34
2022-12-17T19:20:43.782Z,102600.22
2022-12-17T19:23:16.962Z,102602.94
2022-12-17T19:25:51.479Z,102609.84
2022-12-17T19:28:25.195Z,102607.75
2022-12-17T19:31:00.610Z,102605.88
2022-12-17T19:33:33.726Z,102597.44
2022-12-17T19:36:13.027Z,102597.75
2022-12-17T19:38:46.502Z,102600.41
2022-12-17T19:41:22.898Z,102609.38
2022-12-17T19:44:03.198Z,102606.13
2022-12-17T19:46:40.488Z,102609.91
2022-12-17T19:49:17.740Z,102600.69
2022-12-17T19:51:52.472Z,102603.97
2022-12-17T19:54:25.337Z,102607.75
2022-12-17T19:57:04.313Z,102610.47
2022-12-17T19:59:37.542Z,102615.78
2022-12-17T20:02:11.304Z,102610.47
2022-12-17T20:04:54.911Z,102614.75
2022-12-17T20:07:28.574Z,102617.72
2022-12-17T20:10:01.356Z,102611.78
2022-12-17T20:12:36.459Z,102612.34
2022-12-17T20:15:11.865Z,102621.34
2022-12-17T20:17:47.214Z,102626.22
2022-12-17T20:20:20.855Z,102627.63
2022-12-17T20:23:07.043Z,102629.94
2022-12-17T20:26:01.797Z,102617.47
2022-12-17T20:28:37.089Z,102621.81
2022-12-17T20:31:12.726Z,102627.00
2022-12-17T20:33:51.988Z,102624.31
2022-12-17T20:36:29.774Z,102624.53
2022-12-17T20:39:11.789Z,102612.00
2022-12-17T20:41:48.201Z,102615.09
2022-12-17T20:44:23.152Z,102607.63
2022-12-17T20:46:56.524Z,102618.66
2022-12-17T20:49:29.865Z,102621.34
2022-12-17T20:52:03.305Z,102616.44
2022-12-17T20:54:38.913Z,102624.53
2022-12-17T20:57:12.669Z,102624.53
2022-12-17T20:59:49.208Z,102633.22
2022-12-17T21:02:26.534Z,102647.22
2022-12-17T21:05:02.748Z,102652.31
2022-12-17T21:07:45.582Z,102642.66
2022-12-17T21:10:24.565Z,102634.75
2022-12-17T21:13:15.505Z,102638.84
2022-12-17T21:16:04.912Z,102646.88
2022-12-17T21:18:39.208Z,102656.34
2022-12-17T21:21:17.017Z,102649.75
2022-12-17T21:24:04.972Z,102654.44
2022-12-17T21:26:43.267Z,102658.53
2022-12-17T21:29:20.006Z,102656.25
2022-12-17T21:31:54.356Z,102658.44
2022-12-17T21:34:29.391Z,102655.72
2022-12-17T21:37:10.288Z,102659.97
2022-12-17T21:39:43.347Z,102659.50
2022-12-17T21:42:33.975Z,102666.31
2022-12-17T21:45:07.781Z,102674.41
2022-12-17T21:47:42.337Z,102677.31
2022-12-17T21:50:15.606Z,102691.03
2022-12-17T21:52:50.225Z,102688.59
2022-12-17T21:55:23.236Z,102695.00
2022-12-17T21:57:58.547Z,102705.91
2022-12-17T22:00:31.919Z,102710.03
2022-12-17T22:03:07.308Z,102708.59
2022-12-17T22:05:41.291Z,102704.50
2022-12-17T22:08:14.418Z,102704.22
2022-12-17T22:10:52.476Z,102699.91
2022-12-17T22:13:43.249Z,102694.44
2022-12-17T22:16:16.131Z,102681.06
2022-12-17T22:18:52.928Z,102680.50
2022-12-17T22:21:25.925Z,102687.78
2022-12-17T22:23:59.114Z,102690.66
2022-12-17T22:26:34.147Z,102687.69
2022-12-17T22:29:07.280Z,102679.53
2022-12-17T22:31:57.798Z,102689.06
2022-12-17T22:36:04.612Z,102687.44
2022-12-17T22:40:18.336Z,102690.88
2022-12-17T22:44:31.064Z,102689.06
2022-12-17T22:44:42.338Z,102690.66
2022-12-17T22:46:27.144Z,102688.72
2022-12-17T22:49:00.252Z,102683.06
2022-12-17T22:51:42.216Z,102680.56
2022-12-17T22:54:16.495Z,102686.28
2022-12-17T22:57:13.076Z,102686.81
2022-12-17T22:59:45.948Z,102680.56
2022-12-17T23:02:19.278Z,102684.06
2022-12-17T23:04:52.886Z,102687.50
2022-12-17T23:07:31.716Z,102685.69
2022-12-17T23:10:05.663Z,102692.28
2022-12-17T23:12:54.376Z,102692.75
2022-12-17T23:15:30.449Z,102695.25
2022-12-17T23:18:06.330Z,102697.88
2022-12-17T23:20:39.759Z,102693.16
2022-12-17T23:23:14.402Z,102686.66
2022-12-17T23:25:47.290Z,102686.66
2022-12-17T23:28:31.172Z,102675.88
2022-12-17T23:31:25.567Z,102670.84
2022-12-17T23:34:01.337Z,102666.72
2022-12-17T23:36:34.975Z,102677.50
2022-12-17T23:39:19.446Z,102673.13
2022-12-17T23:41:57.695Z,102669.34
2022-12-17T23:44:35.388Z,102661.84
2022-12-17T23:47:08.753Z,102656.38
2022-12-17T23:49:45.114Z,102652.63
2022-12-17T23:52:21.531Z,102644.84
2022-12-17T23:54:57.968Z,102633.00
2022-12-17T23:57:31.700Z,102631.31
